sensor_id;sensor_type;location;lat;lon;timestamp;temperature;humidity
10875;DHT22;5490;52.200;8.786;2023-04-25T00:00:00;9.10;99.90
10875;DHT22;5490;52.200;8.786;2023-04-25T00:02:30;9.10;99.90
10875;DHT22;5490;52.200;8.786;2023-04-25T00:04:57;9.10;99.90
10875;DHT22;5490;52.200;8.786;2023-04-25T00:07:25;9.10;99.90
10875;DHT22;5490;52.200;8.786;2023-04-25T00:09:52;9.10;99.90
10875;DHT22;5490;52.200;8.786;2023-04-25T00:12:18;9.10;99.90
10875;DHT22;5490;52.200;8.786;2023-04-25T00:14:47;9.10;99.90
10875;DHT22;5490;52.200;8.786;2023-04-25T00:17:15;9.10;99.90
10875;DHT22;5490;52.200;8.786;2023-04-25T00:19:43;9.10;99.90
10875;DHT22;5490;52.200;8.786;2023-04-25T00:22:11;9.10;99.90
10875;DHT22;5490;52.200;8.786;2023-04-25T00:24:38;9.10;99.90
10875;DHT22;5490;52.200;8.786;2023-04-25T00:27:05;9.10;99.90
10875;DHT22;5490;52.200;8.786;2023-04-25T00:29:32;9.10;99.90
10875;DHT22;5490;52.200;8.786;2023-04-25T00:31:59;9.10;99.90
10875;DHT22;5490;52.200;8.786;2023-04-25T00:34:26;9.10;99.90
10875;DHT22;5490;52.200;8.786;2023-04-25T00:36:54;9.10;99.90
10875;DHT22;5490;52.200;8.786;2023-04-25T00:39:20;9.10;99.90
10875;DHT22;5490;52.200;8.786;2023-04-25T00:41:48;9.10;99.90
10875;DHT22;5490;52.200;8.786;2023-04-25T00:44:18;9.10;99.90
10875;DHT22;5490;52.200;8.786;2023-04-25T00:46:47;9.10;99.90
10875;DHT22;5490;52.200;8.786;2023-04-25T00:49:14;9.10;99.90
10875;DHT22;5490;52.200;8.786;2023-04-25T00:51:43;9.10;99.90
10875;DHT22;5490;52.200;8.786;2023-04-25T00:54:12;9.10;99.90
10875;DHT22;5490;52.200;8.786;2023-04-25T00:56:39;9.10;99.90
10875;DHT22;5490;52.200;8.786;2023-04-25T00:59:06;9.10;99.90
10875;DHT22;5490;52.200;8.786;2023-04-25T01:01:33;9.10;99.90
10875;DHT22;5490;52.200;8.786;2023-04-25T01:04:01;9.10;99.90
10875;DHT22;5490;52.200;8.786;2023-04-25T01:06:28;9.20;99.90
10875;DHT22;5490;52.200;8.786;2023-04-25T01:08:54;9.10;99.90
10875;DHT22;5490;52.200;8.786;2023-04-25T01:11:23;9.10;99.90
10875;DHT22;5490;52.200;8.786;2023-04-25T01:13:49;9.10;99.90
10875;DHT22;5490;52.200;8.786;2023-04-25T01:16:16;9.10;99.90
10875;DHT22;5490;52.200;8.786;2023-04-25T01:18:45;9.10;99.90
10875;DHT22;5490;52.200;8.786;2023-04-25T01:21:13;9.10;99.90
10875;DHT22;5490;52.200;8.786;2023-04-25T01:23:41;9.00;99.90
10875;DHT22;5490;52.200;8.786;2023-04-25T01:26:09;9.00;99.90
10875;DHT22;5490;52.200;8.786;2023-04-25T01:28:37;9.00;99.90
10875;DHT22;5490;52.200;8.786;2023-04-25T01:31:06;9.00;99.90
10875;DHT22;5490;52.200;8.786;2023-04-25T01:33:33;8.90;99.90
10875;DHT22;5490;52.200;8.786;2023-04-25T01:36:00;8.90;99.90
10875;DHT22;5490;52.200;8.786;2023-04-25T01:38:28;8.90;99.90
10875;DHT22;5490;52.200;8.786;2023-04-25T01:40:55;8.90;99.90
10875;DHT22;5490;52.200;8.786;2023-04-25T01:43:22;8.90;99.90
10875;DHT22;5490;52.200;8.786;2023-04-25T01:45:49;8.90;99.90
10875;DHT22;5490;52.200;8.786;2023-04-25T01:48:16;8.90;99.90
10875;DHT22;5490;52.200;8.786;2023-04-25T01:50:44;8.90;99.90
10875;DHT22;5490;52.200;8.786;2023-04-25T01:53:13;8.90;99.90
10875;DHT22;5490;52.200;8.786;2023-04-25T01:55:41;8.90;99.90
10875;DHT22;5490;52.200;8.786;2023-04-25T01:58:08;8.80;99.90
10875;DHT22;5490;52.200;8.786;2023-04-25T02:00:38;8.70;99.90
10875;DHT22;5490;52.200;8.786;2023-04-25T02:03:06;8.70;99.90
10875;DHT22;5490;52.200;8.786;2023-04-25T02:05:34;8.60;99.90
10875;DHT22;5490;52.200;8.786;2023-04-25T02:08:02;8.60;99.90
10875;DHT22;5490;52.200;8.786;2023-04-25T02:10:29;8.60;99.90
10875;DHT22;5490;52.200;8.786;2023-04-25T02:12:58;8.60;99.90
10875;DHT22;5490;52.200;8.786;2023-04-25T02:15:25;8.60;99.90
10875;DHT22;5490;52.200;8.786;2023-04-25T02:17:52;8.50;99.90
10875;DHT22;5490;52.200;8.786;2023-04-25T02:20:20;8.50;99.90
10875;DHT22;5490;52.200;8.786;2023-04-25T02:22:47;8.50;99.90
10875;DHT22;5490;52.200;8.786;2023-04-25T02:25:13;8.50;99.90
10875;DHT22;5490;52.200;8.786;2023-04-25T02:27:41;8.50;99.90
10875;DHT22;5490;52.200;8.786;2023-04-25T02:30:10;8.50;99.90
10875;DHT22;5490;52.200;8.786;2023-04-25T02:32:36;8.40;99.90
10875;DHT22;5490;52.200;8.786;2023-04-25T02:35:04;8.40;99.90
10875;DHT22;5490;52.200;8.786;2023-04-25T02:37:31;8.50;99.90
10875;DHT22;5490;52.200;8.786;2023-04-25T02:39:58;8.50;99.90
10875;DHT22;5490;52.200;8.786;2023-04-25T02:42:25;8.50;99.90
10875;DHT22;5490;52.200;8.786;2023-04-25T02:44:52;8.60;99.90
10875;DHT22;5490;52.200;8.786;2023-04-25T02:47:21;8.60;99.90
10875;DHT22;5490;52.200;8.786;2023-04-25T02:49:47;8.60;99.90
10875;DHT22;5490;52.200;8.786;2023-04-25T02:52:14;8.60;99.90
10875;DHT22;5490;52.200;8.786;2023-04-25T02:54:41;8.60;99.90
10875;DHT22;5490;52.200;8.786;2023-04-25T02:57:08;8.60;99.90
10875;DHT22;5490;52.200;8.786;2023-04-25T02:59:36;8.60;99.90
10875;DHT22;5490;52.200;8.786;2023-04-25T03:02:02;8.60;99.90
10875;DHT22;5490;52.200;8.786;2023-04-25T03:04:30;8.60;99.90
10875;DHT22;5490;52.200;8.786;2023-04-25T03:06:59;8.60;99.90
10875;DHT22;5490;52.200;8.786;2023-04-25T03:09:26;8.50;99.90
10875;DHT22;5490;52.200;8.786;2023-04-25T03:11:54;8.60;99.90
10875;DHT22;5490;52.200;8.786;2023-04-25T03:14:21;8.50;99.90
10875;DHT22;5490;52.200;8.786;2023-04-25T03:16:47;8.50;99.90
10875;DHT22;5490;52.200;8.786;2023-04-25T03:19:14;8.60;99.90
10875;DHT22;5490;52.200;8.786;2023-04-25T03:21:44;8.50;99.90
10875;DHT22;5490;52.200;8.786;2023-04-25T03:24:10;8.60;99.90
10875;DHT22;5490;52.200;8.786;2023-04-25T03:26:37;8.60;99.90
10875;DHT22;5490;52.200;8.786;2023-04-25T03:29:04;8.60;99.90
10875;DHT22;5490;52.200;8.786;2023-04-25T03:31:31;8.60;99.90
10875;DHT22;5490;52.200;8.786;2023-04-25T03:33:57;8.60;99.90
10875;DHT22;5490;52.200;8.786;2023-04-25T03:36:24;8.60;99.90
10875;DHT22;5490;52.200;8.786;2023-04-25T03:38:52;8.70;99.90
10875;DHT22;5490;52.200;8.786;2023-04-25T03:41:19;8.60;99.90
10875;DHT22;5490;52.200;8.786;2023-04-25T03:43:46;8.60;99.90
10875;DHT22;5490;52.200;8.786;2023-04-25T03:46:13;8.60;99.90
10875;DHT22;5490;52.200;8.786;2023-04-25T03:48:39;8.60;99.90
10875;DHT22;5490;52.200;8.786;2023-04-25T03:51:06;8.60;99.90
10875;DHT22;5490;52.200;8.786;2023-04-25T03:53:33;8.70;99.90
10875;DHT22;5490;52.200;8.786;2023-04-25T03:56:01;8.50;99.90
10875;DHT22;5490;52.200;8.786;2023-04-25T03:58:27;8.50;99.90
10875;DHT22;5490;52.200;8.786;2023-04-25T04:00:54;8.40;99.90
10875;DHT22;5490;52.200;8.786;2023-04-25T04:03:21;8.30;99.90
10875;DHT22;5490;52.200;8.786;2023-04-25T04:05:48;8.30;99.90
10875;DHT22;5490;52.200;8.786;2023-04-25T04:08:15;8.30;99.90
10875;DHT22;5490;52.200;8.786;2023-04-25T04:10:42;8.30;99.90
10875;DHT22;5490;52.200;8.786;2023-04-25T04:13:10;8.30;99.90
10875;DHT22;5490;52.200;8.786;2023-04-25T04:15:37;8.20;99.90
10875;DHT22;5490;52.200;8.786;2023-04-25T04:18:03;8.30;99.90
10875;DHT22;5490;52.200;8.786;2023-04-25T04:20:31;8.20;99.90
10875;DHT22;5490;52.200;8.786;2023-04-25T04:22:58;8.20;99.90
10875;DHT22;5490;52.200;8.786;2023-04-25T04:25:25;8.30;99.90
10875;DHT22;5490;52.200;8.786;2023-04-25T04:27:51;8.30;99.90
10875;DHT22;5490;52.200;8.786;2023-04-25T04:30:21;8.30;99.90
10875;DHT22;5490;52.200;8.786;2023-04-25T04:32:49;8.40;99.90
10875;DHT22;5490;52.200;8.786;2023-04-25T04:35:17;8.30;99.90
10875;DHT22;5490;52.200;8.786;2023-04-25T04:37:43;8.40;99.90
10875;DHT22;5490;52.200;8.786;2023-04-25T04:40:11;8.40;99.90
10875;DHT22;5490;52.200;8.786;2023-04-25T04:42:41;8.40;99.90
10875;DHT22;5490;52.200;8.786;2023-04-25T04:45:08;8.40;99.90
10875;DHT22;5490;52.200;8.786;2023-04-25T04:47:36;8.40;99.90
10875;DHT22;5490;52.200;8.786;2023-04-25T04:50:09;8.40;99.90
10875;DHT22;5490;52.200;8.786;2023-04-25T04:52:36;8.30;99.90
10875;DHT22;5490;52.200;8.786;2023-04-25T04:55:04;8.40;99.90
10875;DHT22;5490;52.200;8.786;2023-04-25T04:57:32;8.40;99.90
10875;DHT22;5490;52.200;8.786;2023-04-25T04:59:59;8.40;99.90
10875;DHT22;5490;52.200;8.786;2023-04-25T05:02:26;8.40;99.90
10875;DHT22;5490;52.200;8.786;2023-04-25T05:04:55;8.40;99.90
10875;DHT22;5490;52.200;8.786;2023-04-25T05:07:22;8.50;99.90
10875;DHT22;5490;52.200;8.786;2023-04-25T05:09:49;8.50;99.90
10875;DHT22;5490;52.200;8.786;2023-04-25T05:12:16;8.50;99.90
10875;DHT22;5490;52.200;8.786;2023-04-25T05:14:42;8.50;99.90
10875;DHT22;5490;52.200;8.786;2023-04-25T05:17:09;8.50;99.90
10875;DHT22;5490;52.200;8.786;2023-04-25T05:19:36;8.50;99.90
10875;DHT22;5490;52.200;8.786;2023-04-25T05:22:04;8.60;99.90
10875;DHT22;5490;52.200;8.786;2023-04-25T05:24:31;8.60;99.90
10875;DHT22;5490;52.200;8.786;2023-04-25T05:26:58;8.60;99.90
10875;DHT22;5490;52.200;8.786;2023-04-25T05:29:25;8.60;99.90
10875;DHT22;5490;52.200;8.786;2023-04-25T05:31:52;8.70;99.90
10875;DHT22;5490;52.200;8.786;2023-04-25T05:34:18;8.70;99.90
10875;DHT22;5490;52.200;8.786;2023-04-25T05:36:46;8.70;99.90
10875;DHT22;5490;52.200;8.786;2023-04-25T05:39:16;8.70;99.90
10875;DHT22;5490;52.200;8.786;2023-04-25T05:41:43;8.80;99.90
10875;DHT22;5490;52.200;8.786;2023-04-25T05:44:09;8.80;99.90
10875;DHT22;5490;52.200;8.786;2023-04-25T05:46:36;8.80;99.90
10875;DHT22;5490;52.200;8.786;2023-04-25T05:49:03;8.90;99.90
10875;DHT22;5490;52.200;8.786;2023-04-25T05:51:30;8.90;99.90
10875;DHT22;5490;52.200;8.786;2023-04-25T05:53:57;9.00;99.90
10875;DHT22;5490;52.200;8.786;2023-04-25T05:56:25;9.10;99.90
10875;DHT22;5490;52.200;8.786;2023-04-25T05:58:52;9.10;99.90
10875;DHT22;5490;52.200;8.786;2023-04-25T06:01:19;9.10;99.90
10875;DHT22;5490;52.200;8.786;2023-04-25T06:03:46;9.10;99.90
10875;DHT22;5490;52.200;8.786;2023-04-25T06:06:12;9.20;99.90
10875;DHT22;5490;52.200;8.786;2023-04-25T06:08:39;9.20;99.90
10875;DHT22;5490;52.200;8.786;2023-04-25T06:11:06;9.20;99.90
10875;DHT22;5490;52.200;8.786;2023-04-25T06:13:34;9.10;99.90
10875;DHT22;5490;52.200;8.786;2023-04-25T06:16:01;9.20;99.90
10875;DHT22;5490;52.200;8.786;2023-04-25T06:18:28;9.10;99.90
10875;DHT22;5490;52.200;8.786;2023-04-25T06:20:55;9.10;99.90
10875;DHT22;5490;52.200;8.786;2023-04-25T06:23:23;9.10;99.90
10875;DHT22;5490;52.200;8.786;2023-04-25T06:25:49;9.10;99.90
10875;DHT22;5490;52.200;8.786;2023-04-25T06:28:16;9.10;99.90
10875;DHT22;5490;52.200;8.786;2023-04-25T06:30:44;9.10;99.90
10875;DHT22;5490;52.200;8.786;2023-04-25T06:33:11;9.10;99.90
10875;DHT22;5490;52.200;8.786;2023-04-25T06:35:37;9.10;99.90
10875;DHT22;5490;52.200;8.786;2023-04-25T06:38:04;9.20;99.90
10875;DHT22;5490;52.200;8.786;2023-04-25T06:40:31;9.20;99.90
10875;DHT22;5490;52.200;8.786;2023-04-25T06:42:57;9.20;99.90
10875;DHT22;5490;52.200;8.786;2023-04-25T06:45:24;9.30;99.90
10875;DHT22;5490;52.200;8.786;2023-04-25T06:47:52;9.30;99.90
10875;DHT22;5490;52.200;8.786;2023-04-25T06:50:19;9.40;99.90
10875;DHT22;5490;52.200;8.786;2023-04-25T06:52:46;9.30;99.90
10875;DHT22;5490;52.200;8.786;2023-04-25T06:55:12;9.20;99.90
10875;DHT22;5490;52.200;8.786;2023-04-25T06:57:39;9.20;99.90
10875;DHT22;5490;52.200;8.786;2023-04-25T07:00:07;9.30;99.90
10875;DHT22;5490;52.200;8.786;2023-04-25T07:02:35;9.40;99.90
10875;DHT22;5490;52.200;8.786;2023-04-25T07:05:03;9.40;99.90
10875;DHT22;5490;52.200;8.786;2023-04-25T07:07:30;9.50;99.90
10875;DHT22;5490;52.200;8.786;2023-04-25T07:09:57;9.60;99.90
10875;DHT22;5490;52.200;8.786;2023-04-25T07:12:24;9.70;99.90
10875;DHT22;5490;52.200;8.786;2023-04-25T07:14:50;9.70;99.90
10875;DHT22;5490;52.200;8.786;2023-04-25T07:17:17;9.80;99.90
10875;DHT22;5490;52.200;8.786;2023-04-25T07:19:44;10.00;99.90
10875;DHT22;5490;52.200;8.786;2023-04-25T07:22:12;10.10;99.90
10875;DHT22;5490;52.200;8.786;2023-04-25T07:24:39;10.30;99.90
10875;DHT22;5490;52.200;8.786;2023-04-25T07:27:06;10.40;99.90
10875;DHT22;5490;52.200;8.786;2023-04-25T07:29:33;10.60;99.90
10875;DHT22;5490;52.200;8.786;2023-04-25T07:32:02;10.70;99.90
10875;DHT22;5490;52.200;8.786;2023-04-25T07:34:29;10.80;99.90
10875;DHT22;5490;52.200;8.786;2023-04-25T07:36:56;10.90;99.90
10875;DHT22;5490;52.200;8.786;2023-04-25T07:39:26;11.00;99.90
10875;DHT22;5490;52.200;8.786;2023-04-25T07:41:52;11.10;99.90
10875;DHT22;5490;52.200;8.786;2023-04-25T07:44:20;11.00;99.90
10875;DHT22;5490;52.200;8.786;2023-04-25T07:46:46;11.10;99.90
10875;DHT22;5490;52.200;8.786;2023-04-25T07:49:13;11.20;99.90
10875;DHT22;5490;52.200;8.786;2023-04-25T07:51:40;11.40;99.90
10875;DHT22;5490;52.200;8.786;2023-04-25T07:54:08;11.60;99.90
10875;DHT22;5490;52.200;8.786;2023-04-25T07:56:36;11.90;99.90
10875;DHT22;5490;52.200;8.786;2023-04-25T07:59:03;12.30;99.90
10875;DHT22;5490;52.200;8.786;2023-04-25T08:01:30;12.70;99.90
10875;DHT22;5490;52.200;8.786;2023-04-25T08:03:57;13.70;99.90
10875;DHT22;5490;52.200;8.786;2023-04-25T08:06:24;14.60;99.90
10875;DHT22;5490;52.200;8.786;2023-04-25T08:08:50;14.80;99.90
10875;DHT22;5490;52.200;8.786;2023-04-25T08:11:19;14.80;99.90
10875;DHT22;5490;52.200;8.786;2023-04-25T08:13:47;15.20;99.90
10875;DHT22;5490;52.200;8.786;2023-04-25T08:16:13;15.80;99.90
10875;DHT22;5490;52.200;8.786;2023-04-25T08:18:41;16.50;99.90
10875;DHT22;5490;52.200;8.786;2023-04-25T08:21:07;17.20;99.90
10875;DHT22;5490;52.200;8.786;2023-04-25T08:23:36;17.80;98.00
10875;DHT22;5490;52.200;8.786;2023-04-25T08:26:03;17.80;96.30
10875;DHT22;5490;52.200;8.786;2023-04-25T08:28:31;17.30;95.00
10875;DHT22;5490;52.200;8.786;2023-04-25T08:30:59;16.80;94.90
10875;DHT22;5490;52.200;8.786;2023-04-25T08:33:26;16.10;94.90
10875;DHT22;5490;52.200;8.786;2023-04-25T08:35:52;15.50;95.70
10875;DHT22;5490;52.200;8.786;2023-04-25T08:38:19;15.00;97.70
10875;DHT22;5490;52.200;8.786;2023-04-25T08:40:49;14.70;99.20
10875;DHT22;5490;52.200;8.786;2023-04-25T08:43:18;14.70;98.60
10875;DHT22;5490;52.200;8.786;2023-04-25T08:45:45;14.40;96.40
10875;DHT22;5490;52.200;8.786;2023-04-25T08:48:15;13.90;95.40
10875;DHT22;5490;52.200;8.786;2023-04-25T08:50:45;13.40;97.40
10875;DHT22;5490;52.200;8.786;2023-04-25T08:53:16;13.00;96.10
10875;DHT22;5490;52.200;8.786;2023-04-25T08:55:45;12.60;98.40
10875;DHT22;5490;52.200;8.786;2023-04-25T08:58:13;12.50;99.40
10875;DHT22;5490;52.200;8.786;2023-04-25T09:00:40;12.70;99.90
10875;DHT22;5490;52.200;8.786;2023-04-25T09:03:06;12.80;99.00
10875;DHT22;5490;52.200;8.786;2023-04-25T09:05:36;12.90;99.10
10875;DHT22;5490;52.200;8.786;2023-04-25T09:08:03;12.70;98.30
10875;DHT22;5490;52.200;8.786;2023-04-25T09:10:30;12.60;98.80
10875;DHT22;5490;52.200;8.786;2023-04-25T09:13:04;12.40;98.60
10875;DHT22;5490;52.200;8.786;2023-04-25T09:15:31;12.20;99.30
10875;DHT22;5490;52.200;8.786;2023-04-25T09:17:59;12.10;98.30
10875;DHT22;5490;52.200;8.786;2023-04-25T09:20:26;11.90;99.90
10875;DHT22;5490;52.200;8.786;2023-04-25T09:23:05;11.90;99.50
10875;DHT22;5490;52.200;8.786;2023-04-25T09:25:36;12.00;99.90
10875;DHT22;5490;52.200;8.786;2023-04-25T09:28:05;11.90;99.90
10875;DHT22;5490;52.200;8.786;2023-04-25T09:30:33;11.70;99.80
10875;DHT22;5490;52.200;8.786;2023-04-25T09:33:04;11.70;99.90
10875;DHT22;5490;52.200;8.786;2023-04-25T09:35:35;11.40;98.60
10875;DHT22;5490;52.200;8.786;2023-04-25T09:38:09;11.30;99.00
10875;DHT22;5490;52.200;8.786;2023-04-25T09:40:39;10.90;97.60
10875;DHT22;5490;52.200;8.786;2023-04-25T09:43:09;10.80;98.90
10875;DHT22;5490;52.200;8.786;2023-04-25T09:45:41;10.70;98.40
10875;DHT22;5490;52.200;8.786;2023-04-25T09:48:11;10.70;99.40
10875;DHT22;5490;52.200;8.786;2023-04-25T09:50:38;10.80;99.10
10875;DHT22;5490;52.200;8.786;2023-04-25T09:53:06;10.70;99.60
10875;DHT22;5490;52.200;8.786;2023-04-25T09:55:34;10.80;99.90
10875;DHT22;5490;52.200;8.786;2023-04-25T09:58:04;10.90;99.90
10875;DHT22;5490;52.200;8.786;2023-04-25T10:00:32;11.00;99.90
10875;DHT22;5490;52.200;8.786;2023-04-25T10:03:01;11.20;99.90
10875;DHT22;5490;52.200;8.786;2023-04-25T10:05:30;11.60;99.90
10875;DHT22;5490;52.200;8.786;2023-04-25T10:07:59;12.30;99.90
10875;DHT22;5490;52.200;8.786;2023-04-25T10:10:30;12.70;99.90
10875;DHT22;5490;52.200;8.786;2023-04-25T10:13:03;13.00;99.90
10875;DHT22;5490;52.200;8.786;2023-04-25T10:15:32;13.20;99.90
10875;DHT22;5490;52.200;8.786;2023-04-25T10:18:00;13.50;99.90
10875;DHT22;5490;52.200;8.786;2023-04-25T10:20:28;13.90;99.90
10875;DHT22;5490;52.200;8.786;2023-04-25T10:22:58;14.10;99.30
10875;DHT22;5490;52.200;8.786;2023-04-25T10:25:30;14.30;99.90
10875;DHT22;5490;52.200;8.786;2023-04-25T10:27:59;14.30;99.90
10875;DHT22;5490;52.200;8.786;2023-04-25T10:30:27;14.40;98.10
10875;DHT22;5490;52.200;8.786;2023-04-25T10:32:55;14.50;97.40
10875;DHT22;5490;52.200;8.786;2023-04-25T10:35:25;14.10;95.30
10875;DHT22;5490;52.200;8.786;2023-04-25T10:38:00;14.10;96.60
10875;DHT22;5490;52.200;8.786;2023-04-25T10:40:26;13.80;93.10
10875;DHT22;5490;52.200;8.786;2023-04-25T10:42:53;13.50;94.40
10875;DHT22;5490;52.200;8.786;2023-04-25T10:45:21;13.30;94.30
10875;DHT22;5490;52.200;8.786;2023-04-25T10:47:49;13.00;95.10
10875;DHT22;5490;52.200;8.786;2023-04-25T10:50:16;12.90;95.60
10875;DHT22;5490;52.200;8.786;2023-04-25T10:52:43;12.80;93.50
10875;DHT22;5490;52.200;8.786;2023-04-25T10:55:10;12.80;92.80
10875;DHT22;5490;52.200;8.786;2023-04-25T10:57:39;12.70;92.30
10875;DHT22;5490;52.200;8.786;2023-04-25T11:00:10;12.70;93.00
10875;DHT22;5490;52.200;8.786;2023-04-25T11:02:40;12.60;92.70
10875;DHT22;5490;52.200;8.786;2023-04-25T11:05:09;12.60;91.70
10875;DHT22;5490;52.200;8.786;2023-04-25T11:07:50;12.50;93.00
10875;DHT22;5490;52.200;8.786;2023-04-25T11:10:17;12.40;92.70
10875;DHT22;5490;52.200;8.786;2023-04-25T11:12:45;12.00;91.90
